Details From LIRA - Ciampino
To LIEE - Cagliari Elmas
Flight Number -
Tags Novice Generated
Created
Modified
Stats Distance 237 nm / 439 km
Max Altitude 1,700 ft / 518 m
Waypoints 14
Social Downloads 5
Likes 0
Share VATSIM

Download

Looking for another format? Having issues loading an existing format? Contact us
Advertisement - Login to hide

Notes

Departing runway 15 LIRA. Arriving runway 13 LIEE.

Route

LIRA +41.73_+012.65 +41.67_+012.66 +41.61_+012.64 +41.56_+012.60 +41.53_+012.53 +40.77_+011.48 +39.24_+009.45 +39.20_+009.40 +39.16_+009.34 +39.15_+009.27 +39.16_+009.19 +39.19_+009.13 LIEE

ID Type Via Altitude Latitude Longitude Leg Dist Tot Dist Heading (true) Name
O LIRA APT - 0 ft / 0 m 41.79040˚ 12.60101˚ - 0 nm - -
+41.73_+012.65 LATLON - 1,550 ft / 472 m 41.72603˚ 12.64533˚ 4 nm 4 nm 153° / 153° -
+41.67_+012.66 LATLON - 1,700 ft / 518 m 41.66859˚ 12.65504˚ 3 nm 7 nm 173° / 173° -
+41.61_+012.64 LATLON - 1,700 ft / 518 m 41.61213˚ 12.63789˚ 3 nm 11 nm 193° / 193° -
+41.56_+012.60 LATLON - 1,700 ft / 518 m 41.56346˚ 12.59598˚ 3 nm 14 nm 213° / 213° -
+41.53_+012.53 LATLON - 1,700 ft / 518 m 41.52844˚ 12.53438˚ 3 nm 18 nm 233° / 233° -
+40.77_+011.48 LATLON - 1,700 ft / 518 m 40.76974˚ 11.47672˚ 66 nm 84 nm 227° / 226° -
+39.24_+009.45 LATLON - 1,700 ft / 518 m 39.24088˚ 9.44985˚ 130 nm 215 nm 226° / 225° -
+39.20_+009.40 LATLON - 1,700 ft / 518 m 39.19532˚ 9.40373˚ 3 nm 218 nm 218° / 218° -
+39.16_+009.34 LATLON - 1,700 ft / 518 m 39.16474˚ 9.34032˚ 3 nm 222 nm 238° / 238° -
+39.15_+009.27 LATLON - 1,700 ft / 518 m 39.15282˚ 9.26726˚ 3 nm 225 nm 258° / 258° -
+39.16_+009.19 LATLON - 1,700 ft / 518 m 39.16099˚ 9.19335˚ 3 nm 229 nm 278° / 278° -
+39.19_+009.13 LATLON - 1,550 ft / 472 m 39.18827˚ 9.12748˚ 3 nm 232 nm 298° / 298° -
O LIEE APT - 0 ft / 0 m 39.24214˚ 9.06511˚ 4 nm 236 nm 318° / 318° -

Altitude Profile

Advertisement - Login to hide

Weather


0- 5 10 15 20 25 30 35+ Temperature / ° C

Clouds and Precipitation
Forecast for 2017-12-13 06:00 UTC. Updated 25 minutes ago

Ground ~20,000 ft ~40,000 ft Winds

LIRA

Details ICAO LIRA (CIA)
Name CIAMPINO
Region Italy
Timezone Europe/Rome (UTC+1.0)
Stats Elevation 427 ft / 130 m (AMSL)
Location 41.799228° 12.594917°
Runways 1
Magnetic Variation 3.057° E

METAR

LIRA 130320Z 20003KT 170V250 9999 RA SCT020 BKN030 11/10 Q1017

Decode

TAF

TAF LIRA 122300Z 1300/1324 23010KT 9999 SCT015 BKN030 TEMPO 1300/1306 3000 SHRA BECMG 1316/1318 VRB05KT

Decode

Departure Runways

ID Width Length Bearing (true) Bearing (mag) Surface Threshold Offset Overrun Length
15 154 ft / 47 m 7,246 ft / 2,209 m 152.79° 149.73° Asphalt 0 ft / 0 m 0 ft / 0 m
33 154 ft / 47 m 7,246 ft / 2,209 m 332.80° 329.74° Asphalt 0 ft / 0 m 0 ft / 0 m

LIEE

Details ICAO LIEE (CAG)
Name Cagliari Elmas
Region Italy
Timezone Europe/Rome (UTC+1.0)
Stats Elevation 13 ft / 4 m (AMSL)
Location 39.251475° 9.054291°
Runways 1
Magnetic Variation 2.297° E

METAR

LIEE 130320Z 32004KT 9999 -RA FEW030 12/11 Q1019

Decode

TAF

TAF LIEE 122300Z 1300/1324 33012KT 9999 SCT040 TEMPO 1300/1303 RA= TAF LIEO 122300Z 1300/1324 VRB06KT 9999 SCT040 BECMG 1303/1306 26015KT BECMG 1310/1312 28015G25KT

Decode

Destination Runways

ID Width Length Bearing (true) Bearing (mag) Surface Threshold Offset Overrun Length
14 148 ft / 45 m 9,157 ft / 2,791 m 138.08° 135.78° Asphalt 0 ft / 0 m 187 ft / 57 m
32 148 ft / 45 m 9,157 ft / 2,791 m 318.09° 315.79° Asphalt 0 ft / 0 m 0 ft / 0 m

Approach Navaids

Runway Type Ident Frequency Range Bearing (true) Bearing (mag) Slope Elevation
32 Localiser IEL 109.50 MHz 18 nm / 33 km 318.12° 315.82° - 7 ft / 2 m (AMSL)
32 Glidescope IEL 109.50 MHz 10 nm / 19 km 318.08° 315.79° 3.00° 9 ft / 3 m (AMSL)
32 DME IEL 109.50 MHz 18 nm / 33 km - - - 26 ft / 8 m (AMSL)

Popular Alternatives